Time;durP1;ratioP1;P1;durP2;ratioP2;P2;SDS_P1;SDS_P2;PMS_P1;PMS_P2;Temp;Humidity;BMP_temperature;BMP_pressure;BME280_temperature;BME280_humidity;BME280_pressure;Samples;Min_cycle;Max_cycle;Signal;HPM_P1;HPM_P2
2022/02/23 00:00:46;;;;;;;10.23;7.00;;;7.10;62.00;;;;;;5073742;28;20099;-62
2022/02/23 00:03:12;;;;;;;10.75;7.55;;;7.10;62.00;;;;;;5073113;28;20032;-62
2022/02/23 00:05:38;;;;;;;10.73;7.57;;;7.10;62.10;;;;;;5083251;28;20111;-62
2022/02/23 00:08:04;;;;;;;12.32;8.52;;;7.10;62.10;;;;;;5072966;28;20074;-62
2022/02/23 00:10:30;;;;;;;12.65;8.80;;;7.10;62.20;;;;;;5092528;28;20020;-62
2022/02/23 00:12:55;;;;;;;10.90;8.52;;;7.10;62.10;;;;;;5092040;28;20072;-62
2022/02/23 00:15:21;;;;;;;12.95;9.23;;;7.00;62.10;;;;;;5082524;28;20455;-62
2022/02/23 00:17:47;;;;;;;11.27;8.15;;;7.00;62.20;;;;;;5072273;28;20032;-62
2022/02/23 00:20:13;;;;;;;12.20;9.32;;;7.00;62.20;;;;;;5072213;28;20078;-62
2022/02/23 00:22:40;;;;;;;9.95;7.88;;;7.00;62.10;;;;;;5075798;28;20036;-62
2022/02/23 00:25:06;;;;;;;13.50;8.52;;;7.00;62.80;;;;;;5072198;28;20112;-62
2022/02/23 00:27:32;;;;;;;11.68;8.60;;;7.00;62.20;;;;;;5080357;28;20028;-62
2022/02/23 00:29:58;;;;;;;13.40;9.50;;;7.00;62.10;;;;;;5091194;28;20023;-62
2022/02/23 00:32:24;;;;;;;14.32;10.43;;;7.00;62.20;;;;;;5088161;28;20199;-62
2022/02/23 00:34:49;;;;;;;12.60;9.27;;;6.90;62.30;;;;;;5075634;28;20037;-62
2022/02/23 00:37:16;;;;;;;14.52;10.05;;;6.90;62.50;;;;;;5075661;28;20028;-62
2022/02/23 00:39:43;;;;;;;12.70;9.30;;;6.80;62.70;;;;;;5076939;28;20507;-62
2022/02/23 00:42:09;;;;;;;13.48;8.57;;;6.80;62.80;;;;;;5076403;28;20024;-62
2022/02/23 00:44:35;;;;;;;12.77;9.18;;;6.70;62.90;;;;;;5086443;28;20031;-62
2022/02/23 00:47:01;;;;;;;13.65;8.85;;;6.70;63.10;;;;;;5084014;28;20036;-62
2022/02/23 00:49:27;;;;;;;11.40;8.70;;;6.60;63.10;;;;;;5095891;28;20082;-62
2022/02/23 00:51:53;;;;;;;11.70;8.70;;;6.60;63.40;;;;;;5095735;28;20422;-62
2022/02/23 00:54:20;;;;;;;13.15;8.88;;;6.50;63.40;;;;;;5095091;28;20020;-62
2022/02/23 00:56:47;;;;;;;10.65;8.38;;;6.50;63.50;;;;;;5095407;28;20089;-62
2022/02/23 00:59:12;;;;;;;10.90;8.32;;;6.50;63.50;;;;;;5078584;28;20017;-62
2022/02/23 01:01:38;;;;;;;10.60;8.05;;;6.50;63.70;;;;;;5085081;28;20024;-62
2022/02/23 01:04:05;;;;;;;15.13;8.43;;;6.50;63.80;;;;;;5095787;28;20059;-62
2022/02/23 01:06:31;;;;;;;12.15;8.30;;;6.40;63.70;;;;;;5092394;28;20380;-62
2022/02/23 01:08:57;;;;;;;11.55;8.00;;;6.40;63.70;;;;;;5075481;28;20446;-62
2022/02/23 01:11:23;;;;;;;12.20;8.45;;;6.40;63.70;;;;;;5088277;28;20384;-62
2022/02/23 01:13:50;;;;;;;10.38;8.00;;;6.40;63.70;;;;;;5088171;28;20366;-62
2022/02/23 01:16:17;;;;;;;12.30;8.73;;;6.40;63.70;;;;;;5075524;28;20021;-62
2022/02/23 01:18:43;;;;;;;12.73;7.93;;;6.40;63.70;;;;;;5091603;28;20107;-62
2022/02/23 01:21:09;;;;;;;10.38;7.13;;;6.40;63.90;;;;;;5078528;28;20124;-62
2022/02/23 01:23:35;;;;;;;8.93;7.13;;;6.30;63.90;;;;;;5075146;28;20078;-62
2022/02/23 01:26:01;;;;;;;11.35;8.00;;;6.30;63.90;;;;;;5081058;28;20024;-62
2022/02/23 01:28:27;;;;;;;9.60;7.03;;;6.30;64.00;;;;;;5076632;28;20031;-62
2022/02/23 01:30:53;;;;;;;10.98;7.22;;;6.30;64.00;;;;;;5082090;28;20024;-62
2022/02/23 01:33:19;;;;;;;10.10;7.05;;;6.30;64.00;;;;;;5094501;28;20518;-62
2022/02/23 01:35:44;;;;;;;9.27;7.00;;;6.30;64.10;;;;;;5083204;28;20135;-61
2022/02/23 01:38:10;;;;;;;7.85;6.47;;;6.30;64.10;;;;;;5074723;28;20071;-61
2022/02/23 01:40:36;;;;;;;8.05;6.20;;;6.30;64.10;;;;;;5073576;28;20029;-62
2022/02/23 01:43:01;;;;;;;8.50;6.50;;;6.30;64.20;;;;;;5074811;28;20028;-62
2022/02/23 01:45:27;;;;;;;9.15;6.93;;;6.20;64.40;;;;;;5074786;28;20484;-62
2022/02/23 01:47:53;;;;;;;8.75;6.60;;;6.20;64.30;;;;;;5074969;28;20111;-62
2022/02/23 01:50:19;;;;;;;10.80;7.28;;;6.20;64.40;;;;;;5081544;28;20032;-62
2022/02/23 01:52:45;;;;;;;10.07;6.88;;;6.20;64.40;;;;;;5094838;28;20020;-61
2022/02/23 01:55:11;;;;;;;9.10;6.75;;;6.20;64.40;;;;;;5094865;28;20468;-61
2022/02/23 01:57:37;;;;;;;8.80;6.47;;;6.20;64.50;;;;;;5094858;28;20030;-62
2022/02/23 02:00:09;;;;;;;9.15;6.45;;;6.20;64.60;;;;;;5083274;28;20036;-62
2022/02/23 02:02:35;;;;;;;8.65;6.25;;;6.20;64.80;;;;;;5078680;28;20036;-62
2022/02/23 02:05:04;;;;;;;9.50;7.00;;;6.20;64.60;;;;;;5074824;28;20117;-62
2022/02/23 02:07:29;;;;;;;8.70;6.25;;;6.20;64.70;;;;;;5084831;28;20040;-61
2022/02/23 02:09:55;;;;;;;9.98;6.75;;;6.20;64.80;;;;;;5094709;28;20028;-61
2022/02/23 02:12:21;;;;;;;9.00;6.85;;;6.20;64.70;;;;;;5094639;28;20074;-60
2022/02/23 02:14:46;;;;;;;8.68;6.50;;;6.20;64.80;;;;;;5078759;28;20156;-60
2022/02/23 02:17:12;;;;;;;9.35;7.10;;;6.30;64.80;;;;;;5074193;28;20048;-60
2022/02/23 02:19:37;;;;;;;8.55;7.05;;;6.30;64.80;;;;;;5074163;28;20029;-60
2022/02/23 02:22:06;;;;;;;10.27;7.70;;;6.20;64.70;;;;;;5074807;28;20107;-60
2022/02/23 02:24:34;;;;;;;9.82;6.72;;;6.30;64.90;;;;;;5091922;28;20031;-60
2022/02/23 02:27:02;;;;;;;8.27;6.47;;;6.30;65.00;;;;;;5093727;28;20024;-61
2022/02/23 02:29:29;;;;;;;8.98;6.85;;;6.30;65.00;;;;;;5089119;28;20070;-61
2022/02/23 02:31:55;;;;;;;8.10;6.13;;;6.20;65.00;;;;;;5090907;28;20035;-61
2022/02/23 02:34:21;;;;;;;7.25;6.03;;;6.30;65.10;;;;;;5089662;28;20047;-61
2022/02/23 02:36:48;;;;;;;8.45;6.50;;;6.20;65.00;;;;;;5074043;28;20025;-60
2022/02/23 02:39:15;;;;;;;9.50;6.28;;;6.20;65.30;;;;;;5087677;28;20035;-60
2022/02/23 02:41:41;;;;;;;9.98;7.22;;;6.20;65.20;;;;;;5089969;28;20032;-60
2022/02/23 02:44:06;;;;;;;8.27;6.22;;;6.20;65.30;;;;;;5076496;28;20025;-60
2022/02/23 02:46:33;;;;;;;8.35;6.90;;;6.10;65.50;;;;;;5073398;28;20038;-60
2022/02/23 02:48:59;;;;;;;7.85;6.43;;;6.20;65.60;;;;;;5086971;28;20388;-60
2022/02/23 02:51:24;;;;;;;9.48;6.97;;;6.10;65.60;;;;;;5073566;28;20024;-60
2022/02/23 02:53:50;;;;;;;9.07;7.32;;;6.10;65.70;;;;;;5091302;28;20054;-60
2022/02/23 02:56:16;;;;;;;14.40;7.25;;;6.10;65.70;;;;;;5083993;28;20024;-60
2022/02/23 02:58:42;;;;;;;7.93;6.93;;;6.10;65.80;;;;;;5088023;28;20032;-60
2022/02/23 03:01:09;;;;;;;9.10;6.60;;;6.10;65.90;;;;;;5093070;28;20024;-60
2022/02/23 03:03:35;;;;;;;9.98;7.50;;;6.10;65.80;;;;;;5091020;28;20164;-60
2022/02/23 03:06:00;;;;;;;9.07;7.10;;;6.10;65.90;;;;;;5073136;28;20056;-60
2022/02/23 03:08:28;;;;;;;8.80;7.10;;;6.10;65.90;;;;;;5074917;28;20379;-60
2022/02/23 03:10:54;;;;;;;9.63;7.18;;;6.10;65.90;;;;;;5091131;28;20024;-60
2022/02/23 03:13:20;;;;;;;9.18;7.00;;;6.10;66.00;;;;;;5068056;28;20028;-60
2022/02/23 03:15:46;;;;;;;9.20;7.20;;;6.10;66.20;;;;;;5093202;28;20024;-60
2022/02/23 03:18:12;;;;;;;9.70;7.38;;;6.10;66.30;;;;;;5092821;28;20020;-60
2022/02/23 03:20:37;;;;;;;10.52;7.55;;;6.00;66.30;;;;;;5092069;28;20478;-60
2022/02/23 03:23:03;;;;;;;7.95;6.78;;;6.00;66.50;;;;;;5083099;28;20095;-60
2022/02/23 03:25:29;;;;;;;8.30;6.60;;;5.90;66.50;;;;;;5085616;28;20028;-60
2022/02/23 03:27:55;;;;;;;10.75;7.80;;;5.90;66.60;;;;;;5092846;28;20027;-60
2022/02/23 03:30:21;;;;;;;11.00;7.47;;;5.90;66.90;;;;;;5091821;28;20020;-60
2022/02/23 03:32:46;;;;;;;8.80;7.38;;;5.90;66.90;;;;;;5083542;28;20028;-60
2022/02/23 03:35:12;;;;;;;9.77;7.43;;;5.90;67.00;;;;;;5085765;28;20557;-60
2022/02/23 03:37:38;;;;;;;8.63;7.13;;;5.90;67.10;;;;;;5072710;28;20046;-60
2022/02/23 03:40:04;;;;;;;8.23;6.65;;;5.80;67.20;;;;;;5072413;28;20025;-60
2022/02/23 03:42:30;;;;;;;11.23;6.50;;;5.80;67.20;;;;;;5073092;28;20024;-60
2022/02/23 03:44:55;;;;;;;10.52;7.22;;;5.80;67.40;;;;;;5086744;28;20031;-60
2022/02/23 03:47:22;;;;;;;8.30;6.63;;;5.80;67.40;;;;;;5081463;28;20031;-60
2022/02/23 03:49:47;;;;;;;7.68;6.63;;;5.80;67.40;;;;;;5092510;28;20093;-60
2022/02/23 03:52:13;;;;;;;8.73;6.85;;;5.80;67.40;;;;;;5092721;28;20016;-60
2022/02/23 03:54:39;;;;;;;9.10;6.82;;;5.80;67.30;;;;;;5092623;28;20020;-60
2022/02/23 03:57:05;;;;;;;7.38;6.63;;;5.80;67.30;;;;;;5092757;28;20032;-60
2022/02/23 03:59:31;;;;;;;11.20;7.65;;;5.80;67.30;;;;;;5092458;28;20589;-60
2022/02/23 04:01:57;;;;;;;7.55;6.75;;;5.80;67.40;;;;;;5082892;28;20115;-60
2022/02/23 04:04:22;;;;;;;9.77;7.00;;;5.90;67.40;;;;;;5074183;28;20123;-60
2022/02/23 04:06:49;;;;;;;10.27;7.80;;;5.80;67.40;;;;;;5072322;28;20040;-60
2022/02/23 04:09:15;;;;;;;8.93;6.85;;;5.80;67.50;;;;;;5073233;28;20028;-60
2022/02/23 04:11:41;;;;;;;10.60;7.90;;;5.80;67.50;;;;;;5085021;28;20028;-60
2022/02/23 04:14:08;;;;;;;9.32;6.97;;;5.70;67.60;;;;;;5072696;28;20469;-60
2022/02/23 04:16:35;;;;;;;9.23;6.82;;;5.70;67.80;;;;;;5072198;28;20074;-60
2022/02/23 04:19:01;;;;;;;10.00;5.97;;;5.70;67.80;;;;;;5072242;28;20024;-60
2022/02/23 04:21:26;;;;;;;8.75;7.70;;;5.70;67.80;;;;;;5088029;28;20077;-60
2022/02/23 04:23:52;;;;;;;8.98;6.60;;;5.70;68.00;;;;;;5076958;28;20024;-60
2022/02/23 04:26:20;;;;;;;11.80;8.23;;;5.70;68.20;;;;;;5091923;28;20360;-60
2022/02/23 04:28:46;;;;;;;11.52;8.77;;;5.70;68.10;;;;;;5088575;28;20039;-60
2022/02/23 04:31:13;;;;;;;10.35;6.93;;;5.70;68.20;;;;;;5080907;28;20103;-60
2022/02/23 04:33:40;;;;;;;9.70;8.10;;;5.70;68.20;;;;;;5072015;28;20024;-60
2022/02/23 04:36:07;;;;;;;8.35;5.80;;;5.70;68.30;;;;;;5071890;28;20088;-60
2022/02/23 04:38:34;;;;;;;10.80;7.63;;;5.70;68.40;;;;;;5088796;28;20035;-60
2022/02/23 04:41:00;;;;;;;9.63;7.50;;;5.70;68.50;;;;;;5084926;28;20527;-60
2022/02/23 04:43:25;;;;;;;9.80;7.20;;;5.70;68.50;;;;;;5092123;28;20032;-60
2022/02/23 04:45:51;;;;;;;9.45;7.10;;;5.70;68.50;;;;;;5092625;28;20032;-60
2022/02/23 04:48:17;;;;;;;9.88;6.70;;;5.70;69.20;;;;;;5091359;28;20032;-60
2022/02/23 04:50:44;;;;;;;7.93;6.80;;;5.70;68.70;;;;;;5072219;28;20036;-60
2022/02/23 04:53:09;;;;;;;7.32;6.28;;;5.70;68.90;;;;;;5083296;28;20047;-60
2022/02/23 04:55:35;;;;;;;8.75;7.22;;;5.70;69.00;;;;;;5082892;28;20032;-60
2022/02/23 04:58:07;;;;;;;9.77;7.35;;;5.60;69.70;;;;;;5078553;28;20020;-60
2022/02/23 05:00:35;;;;;;;11.63;8.02;;;5.70;69.10;;;;;;5078910;28;20028;-60
2022/02/23 05:03:00;;;;;;;10.40;7.57;;;5.70;69.20;;;;;;5091332;28;20036;-60
2022/02/23 05:05:26;;;;;;;9.05;7.75;;;5.80;69.40;;;;;;5080336;28;20021;-60
2022/02/23 05:07:52;;;;;;;9.98;7.88;;;5.80;69.30;;;;;;5089833;28;20039;-60
2022/02/23 05:10:17;;;;;;;9.02;7.75;;;5.90;69.10;;;;;;5091544;28;20099;-60
2022/02/23 05:12:43;;;;;;;9.98;7.82;;;6.00;69.20;;;;;;5075069;28;20060;-60
2022/02/23 05:15:09;;;;;;;8.45;7.07;;;6.00;69.10;;;;;;5073848;28;20020;-60
2022/02/23 05:17:34;;;;;;;9.02;7.75;;;6.10;68.90;;;;;;5075338;28;20028;-60
2022/02/23 05:20:00;;;;;;;9.80;7.82;;;6.20;69.10;;;;;;5079646;28;20051;-60
2022/02/23 05:22:26;;;;;;;9.68;8.23;;;6.30;68.80;;;;;;5088555;28;20048;-60
2022/02/23 05:24:51;;;;;;;10.88;8.27;;;6.30;68.70;;;;;;5095222;28;20491;-60
2022/02/23 05:27:17;;;;;;;9.38;7.30;;;6.40;68.60;;;;;;5089496;28;20035;-60
2022/02/23 05:29:43;;;;;;;13.68;8.68;;;6.40;68.40;;;;;;5077015;28;20029;-60
2022/02/23 05:32:08;;;;;;;12.68;8.73;;;6.50;68.30;;;;;;5088971;28;20020;-60
2022/02/23 05:34:34;;;;;;;11.15;7.85;;;6.50;68.30;;;;;;5084449;28;20504;-60
2022/02/23 05:37:00;;;;;;;10.95;8.23;;;6.60;68.30;;;;;;5092475;28;20051;-60
2022/02/23 05:39:25;;;;;;;11.13;8.88;;;6.60;68.20;;;;;;5094557;28;20047;-60
2022/02/23 05:41:51;;;;;;;11.77;9.45;;;6.70;68.20;;;;;;5080047;28;20103;-60
2022/02/23 05:44:17;;;;;;;11.30;8.63;;;6.70;68.20;;;;;;5095267;28;20024;-60
2022/02/23 05:46:42;;;;;;;12.10;9.20;;;6.70;68.10;;;;;;5076324;28;20024;-61
2022/02/23 05:49:08;;;;;;;13.57;10.00;;;6.80;68.10;;;;;;5075407;28;20052;-60
2022/02/23 05:51:36;;;;;;;13.68;10.00;;;6.80;68.00;;;;;;5087718;28;20224;-60
2022/02/23 05:54:03;;;;;;;12.82;9.48;;;6.80;68.00;;;;;;5087995;28;20158;-60
2022/02/23 05:56:30;;;;;;;12.07;9.50;;;6.70;67.90;;;;;;5090056;28;20471;-60
2022/02/23 05:58:57;;;;;;;14.02;9.98;;;6.80;68.00;;;;;;5079770;28;20032;-60
2022/02/23 06:01:23;;;;;;;13.77;10.23;;;6.80;68.20;;;;;;5084746;28;20030;-60
2022/02/23 06:03:49;;;;;;;16.10;10.88;;;6.80;68.30;;;;;;5096216;28;20032;-60
2022/02/23 06:06:15;;;;;;;13.30;9.93;;;6.80;68.60;;;;;;5086762;28;20047;-59
2022/02/23 06:08:40;;;;;;;15.30;11.10;;;6.80;68.70;;;;;;5092983;28;20103;-59
2022/02/23 06:11:08;;;;;;;13.88;10.35;;;6.80;68.80;;;;;;5092014;28;20077;-59
2022/02/23 06:13:34;;;;;;;13.27;10.38;;;6.90;68.80;;;;;;5088549;28;20020;-60
2022/02/23 06:16:01;;;;;;;15.23;11.35;;;7.00;69.00;;;;;;5091522;28;20035;-59
2022/02/23 06:18:27;;;;;;;14.10;11.13;;;7.10;69.20;;;;;;5093750;28;20040;-60
2022/02/23 06:20:54;;;;;;;14.43;10.95;;;7.10;69.30;;;;;;5087772;28;20051;-60
2022/02/23 06:23:21;;;;;;;17.35;10.52;;;7.30;69.30;;;;;;5090281;28;20028;-60
2022/02/23 06:25:47;;;;;;;13.88;8.93;;;7.40;69.70;;;;;;5083061;28;20487;-60
2022/02/23 06:28:12;;;;;;;13.35;9.75;;;7.50;68.80;;;;;;5081962;28;20032;-60
2022/02/23 06:30:38;;;;;;;10.48;9.13;;;7.60;68.30;;;;;;5080418;28;20024;-60
2022/02/23 06:33:04;;;;;;;10.13;8.43;;;7.70;68.10;;;;;;5081721;28;20496;-60
2022/02/23 06:35:30;;;;;;;12.70;8.95;;;7.70;67.80;;;;;;5081541;28;20044;-60
2022/02/23 06:37:55;;;;;;;12.73;8.25;;;7.70;67.60;;;;;;5084166;28;20046;-60
2022/02/23 06:40:21;;;;;;;10.00;7.25;;;7.80;67.40;;;;;;5089729;28;20028;-60
2022/02/23 06:42:46;;;;;;;8.38;7.07;;;7.80;67.30;;;;;;5081527;28;20029;-60
2022/02/23 06:45:12;;;;;;;10.23;8.55;;;7.80;67.20;;;;;;5083447;28;20032;-61
2022/02/23 06:47:38;;;;;;;9.00;7.28;;;7.80;67.00;;;;;;5080894;28;20035;-60
2022/02/23 06:50:04;;;;;;;11.10;7.70;;;7.90;67.00;;;;;;5083394;28;20028;-60
2022/02/23 06:52:34;;;;;;;7.85;6.13;;;7.90;66.90;;;;;;5087053;28;20020;-60
2022/02/23 06:54:59;;;;;;;7.63;6.63;;;7.90;66.60;;;;;;5079186;28;20103;-60
2022/02/23 06:57:36;;;;;;;9.85;7.50;;;7.90;66.70;;;;;;5077677;28;20033;-60
2022/02/23 07:00:05;;;;;;;9.23;6.88;;;7.90;66.50;;;;;;5078067;28;20032;-60
2022/02/23 07:02:32;;;;;;;8.77;6.72;;;7.90;66.20;;;;;;5067056;28;20242;-60
2022/02/23 07:04:58;;;;;;;7.93;6.45;;;7.90;66.10;;;;;;5077411;28;20110;-60
2022/02/23 07:07:24;;;;;;;5.28;4.68;;;7.90;66.00;;;;;;5076886;28;20423;-61
2022/02/23 07:09:49;;;;;;;10.57;6.13;;;8.00;65.60;;;;;;5076280;28;20028;-60
2022/02/23 07:12:16;;;;;;;9.05;5.57;;;7.90;65.30;;;;;;5073951;28;20060;-59
2022/02/23 07:14:41;;;;;;;10.52;6.55;;;8.00;65.20;;;;;;5070979;28;20480;-60
2022/02/23 07:17:07;;;;;;;7.18;5.47;;;8.00;65.10;;;;;;5077819;28;20028;-60
2022/02/23 07:19:35;;;;;;;7.35;5.40;;;7.90;65.00;;;;;;5076977;28;20062;-60
2022/02/23 07:22:01;;;;;;;7.35;5.57;;;7.90;64.90;;;;;;5072608;28;20032;-60
2022/02/23 07:24:27;;;;;;;7.15;5.47;;;7.90;65.10;;;;;;5064338;28;20059;-61
2022/02/23 07:26:53;;;;;;;6.35;5.30;;;7.90;65.20;;;;;;5068636;28;20036;-61
2022/02/23 07:29:19;;;;;;;6.97;5.57;;;7.80;65.10;;;;;;5074199;28;20480;-60
2022/02/23 07:31:44;;;;;;;8.25;5.68;;;7.80;65.20;;;;;;5067561;28;20032;-60
2022/02/23 07:34:11;;;;;;;8.45;5.80;;;7.90;65.10;;;;;;5071599;28;20048;-60
2022/02/23 07:36:37;;;;;;;9.93;5.43;;;7.80;64.80;;;;;;5068028;28;20489;-61
2022/02/23 07:39:04;;;;;;;7.30;5.93;;;7.80;64.60;;;;;;5064342;28;20020;-60
2022/02/23 07:41:29;;;;;;;8.05;5.80;;;7.80;64.30;;;;;;5069575;28;20024;-60
2022/02/23 07:43:56;;;;;;;7.97;5.25;;;7.80;64.30;;;;;;5074765;28;20028;-62
2022/02/23 07:46:22;;;;;;;8.15;5.45;;;7.80;64.30;;;;;;5072745;28;20646;-61
2022/02/23 07:48:48;;;;;;;8.63;5.38;;;7.80;64.20;;;;;;5070183;28;20055;-61
2022/02/23 07:51:19;;;;;;;7.45;4.38;;;7.80;63.90;;;;;;5062894;28;20040;-62
2022/02/23 07:53:47;;;;;;;6.03;4.53;;;7.80;63.60;;;;;;5065775;28;20032;-62
2022/02/23 07:56:13;;;;;;;7.38;4.70;;;7.80;63.10;;;;;;5063246;28;20057;-62
2022/02/23 07:58:39;;;;;;;6.57;5.25;;;7.80;63.10;;;;;;5061750;28;20133;-61
2022/02/23 08:01:04;;;;;;;7.95;5.25;;;7.80;63.20;;;;;;5069581;28;20054;-61
2022/02/23 08:03:32;;;;;;;5.70;4.18;;;7.80;63.00;;;;;;5064724;28;20039;-61
2022/02/23 08:05:58;;;;;;;6.75;4.57;;;7.80;63.00;;;;;;5070952;28;20056;-61
2022/02/23 08:08:23;;;;;;;7.03;4.68;;;7.80;62.90;;;;;;5068723;28;20135;-62
2022/02/23 08:10:49;;;;;;;5.80;4.65;;;7.90;63.20;;;;;;5067832;28;20024;-61
2022/02/23 08:13:16;;;;;;;6.15;5.05;;;7.90;63.20;;;;;;5070934;28;20024;-60
2022/02/23 08:21:13;;;;;;;6.68;5.10;;;7.90;63.30;;;;;;5064392;28;20419;-60
2022/02/23 08:23:43;;;;;;;6.82;5.68;;;7.90;63.40;;;;;;5066543;28;20032;-61
2022/02/23 08:26:11;;;;;;;7.07;5.53;;;7.80;63.50;;;;;;5067863;28;20658;-61
2022/02/23 08:28:36;;;;;;;7.43;5.85;;;7.80;63.40;;;;;;5058056;28;20078;-62
2022/02/23 08:31:03;;;;;;;7.85;6.20;;;7.90;63.50;;;;;;5060404;28;20123;-62
2022/02/23 08:33:29;;;;;;;7.90;6.75;;;7.80;63.40;;;;;;5067986;28;20039;-62
2022/02/23 08:35:54;;;;;;;5.65;5.03;;;7.80;63.80;;;;;;5060923;28;20796;-63
2022/02/23 08:38:21;;;;;;;7.15;5.13;;;7.80;63.60;;;;;;5063656;28;20032;-62
2022/02/23 08:40:46;;;;;;;7.20;5.28;;;7.90;63.60;;;;;;5068285;28;20032;-63
2022/02/23 08:43:13;;;;;;;7.00;5.20;;;7.90;63.30;;;;;;5054465;28;20744;-62
2022/02/23 08:45:40;;;;;;;5.47;4.03;;;7.90;63.20;;;;;;5058595;28;20032;-60
2022/02/23 08:48:06;;;;;;;5.55;4.35;;;7.90;62.50;;;;;;5070540;28;20498;-62
2022/02/23 08:50:32;;;;;;;5.30;4.22;;;7.90;62.10;;;;;;5064119;28;20521;-60
2022/02/23 08:52:57;;;;;;;5.38;4.13;;;7.90;61.60;;;;;;5065161;28;20028;-61
2022/02/23 08:55:24;;;;;;;4.85;4.20;;;7.90;61.40;;;;;;5069799;28;20393;-63
2022/02/23 08:57:50;;;;;;;7.13;4.88;;;7.90;61.10;;;;;;5062443;28;20027;-63
2022/02/23 09:00:16;;;;;;;4.65;4.20;;;8.00;60.60;;;;;;5067849;28;20081;-63
2022/02/23 09:02:42;;;;;;;4.85;3.95;;;7.90;60.30;;;;;;5066284;28;20128;-62
2022/02/23 09:05:08;;;;;;;6.18;4.30;;;7.90;60.70;;;;;;5067094;28;20036;-62
2022/02/23 09:07:34;;;;;;;5.35;4.00;;;7.90;60.80;;;;;;5070087;28;20028;-61
2022/02/23 09:09:59;;;;;;;5.38;3.92;;;7.90;61.70;;;;;;5061702;28;20050;-61
2022/02/23 09:12:25;;;;;;;7.22;5.15;;;7.90;61.00;;;;;;5069553;28;23493;-61
2022/02/23 09:14:52;;;;;;;6.45;4.53;;;8.00;61.20;;;;;;5072134;28;20043;-63
2022/02/23 09:17:18;;;;;;;6.50;4.80;;;8.00;61.00;;;;;;5072478;28;20491;-63
2022/02/23 09:19:43;;;;;;;5.85;4.68;;;8.10;61.00;;;;;;5072669;28;20081;-62
2022/02/23 09:22:09;;;;;;;5.80;4.53;;;8.20;60.90;;;;;;5059864;28;20884;-63
2022/02/23 09:24:35;;;;;;;5.03;4.00;;;8.30;60.90;;;;;;5066161;28;20404;-63
2022/02/23 09:27:02;;;;;;;4.57;3.78;;;8.40;60.30;;;;;;5067338;28;20164;-62
2022/02/23 09:29:36;;;;;;;5.35;4.43;;;8.40;60.00;;;;;;5064438;28;20545;-62
2022/02/23 09:32:03;;;;;;;5.05;3.75;;;8.40;59.70;;;;;;5065229;28;20158;-61
2022/02/23 09:34:29;;;;;;;6.28;4.40;;;8.50;58.90;;;;;;5069585;28;20044;-63
2022/02/23 09:36:55;;;;;;;5.25;3.60;;;8.60;58.60;;;;;;5068336;28;20519;-62
2022/02/23 09:39:21;;;;;;;5.03;3.83;;;8.70;57.90;;;;;;5072553;28;20024;-63
2022/02/23 09:41:47;;;;;;;8.63;5.22;;;8.70;57.90;;;;;;5063141;28;20043;-63
2022/02/23 09:44:17;;;;;;;6.00;4.10;;;8.70;57.40;;;;;;5055778;28;21968;-62
2022/02/23 09:46:44;;;;;;;5.38;4.28;;;8.70;57.60;;;;;;5065211;28;20036;-62
2022/02/23 09:49:11;;;;;;;5.50;3.58;;;8.70;57.50;;;;;;5061353;28;20024;-63
2022/02/23 09:51:37;;;;;;;5.68;3.92;;;8.70;56.60;;;;;;5060833;28;20029;-63
2022/02/23 09:54:02;;;;;;;4.40;3.40;;;8.70;56.50;;;;;;5069504;28;20028;-62
2022/02/23 09:56:28;;;;;;;5.85;3.55;;;8.60;56.20;;;;;;5066321;28;20038;-62
2022/02/23 09:58:54;;;;;;;5.82;3.80;;;8.60;56.10;;;;;;5064652;28;20047;-63
2022/02/23 10:01:24;;;;;;;5.90;4.40;;;8.60;56.00;;;;;;5070257;28;20040;-61
2022/02/23 10:03:51;;;;;;;5.47;3.90;;;8.50;55.90;;;;;;5066274;28;20035;-62
2022/02/23 10:06:29;;;;;;;4.53;3.80;;;8.50;56.00;;;;;;5066123;28;20415;-62
2022/02/23 10:09:06;;;;;;;4.60;3.28;;;8.50;55.80;;;;;;5069821;28;20560;-63
2022/02/23 10:11:33;;;;;;;6.10;3.25;;;8.50;55.50;;;;;;5076587;28;20127;-62
2022/02/23 10:14:02;;;;;;;4.10;3.33;;;8.40;55.00;;;;;;5070700;28;20664;-61
2022/02/23 10:16:44;;;;;;;5.60;3.38;;;8.40;54.90;;;;;;5070417;28;20027;-62
2022/02/23 10:19:22;;;;;;;4.07;3.53;;;8.30;54.60;;;;;;5062032;28;20032;-62
2022/02/23 10:21:52;;;;;;;5.88;3.30;;;8.30;54.40;;;;;;5065249;28;20044;-63
2022/02/23 10:24:27;;;;;;;5.80;3.30;;;8.20;54.30;;;;;;5062543;28;20055;-63
2022/02/23 10:27:13;;;;;;;5.38;3.10;;;8.20;54.10;;;;;;5063749;28;20028;-62
2022/02/23 10:29:45;;;;;;;3.50;3.10;;;8.20;53.60;;;;;;5067247;28;20040;-63
2022/02/23 10:32:13;;;;;;;3.95;3.13;;;8.10;53.50;;;;;;5071007;28;20058;-63
2022/02/23 10:34:44;;;;;;;6.80;3.40;;;8.10;53.40;;;;;;5066173;28;20048;-62
2022/02/23 10:37:11;;;;;;;3.88;3.20;;;8.10;53.20;;;;;;5050290;28;20044;-62
2022/02/23 10:39:49;;;;;;;3.78;3.25;;;8.10;53.00;;;;;;5064866;28;20031;-62
2022/02/23 10:42:26;;;;;;;3.33;2.80;;;8.10;52.90;;;;;;5066831;28;20040;-63
2022/02/23 10:44:53;;;;;;;4.47;3.20;;;8.10;52.90;;;;;;5073517;28;20036;-61
2022/02/23 10:47:29;;;;;;;4.80;3.47;;;8.10;52.90;;;;;;5068963;28;20047;-60
2022/02/23 10:50:14;;;;;;;3.88;3.13;;;8.10;52.90;;;;;;5067526;28;20028;-62
2022/02/23 10:52:52;;;;;;;3.65;3.10;;;8.10;52.70;;;;;;5069774;28;20024;-61
2022/02/23 10:55:20;;;;;;;3.80;2.80;;;8.10;51.90;;;;;;5061624;28;20559;-61
2022/02/23 10:58:06;;;;;;;4.57;3.13;;;8.10;51.60;;;;;;5066572;28;20063;-63
2022/02/23 11:00:39;;;;;;;3.05;2.70;;;8.10;51.40;;;;;;5067275;28;20027;-63
2022/02/23 11:03:05;;;;;;;3.75;3.35;;;8.10;51.70;;;;;;5065186;28;20028;-62
2022/02/23 11:05:33;;;;;;;3.60;3.13;;;8.10;51.80;;;;;;5068465;28;20142;-62
2022/02/23 11:08:04;;;;;;;3.55;3.10;;;8.10;52.00;;;;;;5073025;28;20043;-61
2022/02/23 11:10:30;;;;;;;3.22;2.92;;;8.10;51.90;;;;;;5076982;28;20156;-61
2022/02/23 11:12:58;;;;;;;4.80;3.20;;;8.10;52.00;;;;;;5078368;28;20040;-62
2022/02/23 11:15:26;;;;;;;6.07;3.50;;;8.10;52.00;;;;;;5078885;28;20032;-61
2022/02/23 11:17:54;;;;;;;4.20;3.15;;;8.10;51.90;;;;;;5083398;28;20031;-61
2022/02/23 11:20:24;;;;;;;4.35;3.08;;;8.10;51.80;;;;;;5076587;28;20514;-61
2022/02/23 11:22:59;;;;;;;3.90;3.50;;;8.10;51.80;;;;;;5067994;28;20093;-62
2022/02/23 11:25:26;;;;;;;4.07;3.38;;;8.20;51.80;;;;;;5064521;28;20950;-62
2022/02/23 11:28:15;;;;;;;5.40;3.30;;;8.20;52.00;;;;;;5060365;28;20198;-62
2022/02/23 11:30:42;;;;;;;4.30;3.17;;;8.20;51.80;;;;;;5068283;28;20032;-62
2022/02/23 11:33:07;;;;;;;4.32;3.03;;;8.20;51.50;;;;;;5070473;28;20128;-62
2022/02/23 11:35:42;;;;;;;4.43;3.35;;;8.20;51.70;;;;;;5072204;28;20040;-62
2022/02/23 11:38:09;;;;;;;4.13;2.90;;;8.20;51.80;;;;;;5071110;28;20024;-62
2022/02/23 11:40:52;;;;;;;3.38;2.88;;;8.20;51.70;;;;;;5053684;28;20035;-62
2022/02/23 11:43:33;;;;;;;3.83;2.70;;;8.20;51.40;;;;;;5065796;28;20036;-61
2022/02/23 11:46:04;;;;;;;3.67;2.80;;;8.20;51.10;;;;;;5060510;28;20035;-61
2022/02/23 11:48:50;;;;;;;4.50;2.80;;;8.20;51.00;;;;;;5066331;28;20145;-62
2022/02/23 11:51:24;;;;;;;4.07;3.08;;;8.20;50.70;;;;;;5060639;28;20043;-62
2022/02/23 11:53:50;;;;;;;6.18;3.30;;;8.20;50.90;;;;;;5060310;28;20099;-62
2022/02/23 11:56:17;;;;;;;3.33;3.03;;;8.20;50.90;;;;;;5067610;28;20032;-61
2022/02/23 11:58:51;;;;;;;3.47;3.15;;;8.20;50.80;;;;;;5060663;28;20040;-62
2022/02/23 12:01:20;;;;;;;4.05;3.08;;;8.20;51.00;;;;;;5056898;28;20032;-61
2022/02/23 12:04:05;;;;;;;4.00;3.00;;;8.20;50.90;;;;;;5065254;28;20036;-62
2022/02/23 12:07:08;;;;;;;3.92;3.08;;;8.20;50.70;;;;;;5071079;28;20055;-60
2022/02/23 12:09:55;;;;;;;3.35;2.75;;;8.20;50.50;;;;;;5068131;28;20590;-62
2022/02/23 12:12:46;;;;;;;5.30;3.17;;;8.20;50.40;;;;;;5069344;28;20024;-63
2022/02/23 12:15:24;;;;;;;4.40;3.25;;;8.20;50.40;;;;;;5073267;28;20040;-62
2022/02/23 12:18:12;;;;;;;3.90;3.33;;;8.20;50.80;;;;;;5073561;28;20059;-62
2022/02/23 12:20:38;;;;;;;3.95;3.20;;;8.30;50.70;;;;;;5071265;28;20484;-62
2022/02/23 12:23:18;;;;;;;4.28;3.20;;;8.30;50.60;;;;;;5067652;28;20032;-61
2022/02/23 12:25:57;;;;;;;10.43;3.42;;;8.40;50.20;;;;;;5066282;28;20020;-61
2022/02/23 12:28:31;;;;;;;4.47;2.75;;;8.40;49.90;;;;;;5075305;28;20055;-60
2022/02/23 12:31:06;;;;;;;2.97;2.67;;;8.40;49.50;;;;;;5071383;28;20046;-60
2022/02/23 12:33:32;;;;;;;3.60;2.78;;;8.40;49.40;;;;;;5074544;28;20015;-61
2022/02/23 12:36:06;;;;;;;3.17;2.70;;;8.40;49.30;;;;;;5067827;28;20048;-61
2022/02/23 12:38:35;;;;;;;3.33;2.90;;;8.40;48.80;;;;;;5076449;28;20111;-61
2022/02/23 12:41:10;;;;;;;3.17;2.80;;;8.40;48.80;;;;;;5073124;28;20055;-61
2022/02/23 12:43:40;;;;;;;3.65;2.60;;;8.40;49.00;;;;;;5066777;28;20028;-63
2022/02/23 12:46:06;;;;;;;3.75;3.10;;;8.40;48.90;;;;;;5070145;28;20427;-61
2022/02/23 12:48:34;;;;;;;4.63;3.22;;;8.50;49.00;;;;;;5074746;28;20067;-60
2022/02/23 12:51:04;;;;;;;4.45;3.42;;;8.50;49.20;;;;;;5066488;28;21160;-60
2022/02/23 12:53:52;;;;;;;4.32;3.33;;;8.50;49.20;;;;;;5070022;28;20055;-62
2022/02/23 12:56:26;;;;;;;3.55;2.75;;;8.50;49.00;;;;;;5077919;28;20020;-60
2022/02/23 12:59:04;;;;;;;3.40;3.10;;;8.50;49.30;;;;;;5073049;28;20032;-62
2022/02/23 13:01:34;;;;;;;5.50;3.20;;;8.60;49.30;;;;;;5067926;28;20067;-62